createdAt,value
2022-11-28T13:18:01.170Z,15.55
2022-11-28T13:20:34.178Z,19.60
2022-11-28T13:23:07.065Z,21.63
2022-11-28T13:26:11.297Z,20.88
2022-11-28T13:35:36.223Z,18.98
2022-11-28T13:38:48.276Z,20.73
2022-11-28T13:45:08.726Z,20.95
2022-11-28T13:47:37.407Z,19.92
2022-11-28T13:53:24.450Z,20.17
2022-11-28T13:56:13.260Z,21.75
2022-11-28T13:58:57.479Z,21.23
2022-11-28T14:01:28.748Z,22.45
2022-11-28T14:03:58.371Z,22.15
2022-11-28T14:06:28.734Z,21.58
2022-11-28T14:09:44.878Z,22.73
2022-11-28T14:12:30.669Z,21.88
2022-11-28T14:15:25.333Z,22.85
2022-11-28T14:18:55.795Z,21.52
2022-11-28T14:21:56.148Z,22.02
2022-11-28T14:32:14.138Z,21.23
2022-11-28T14:35:35.612Z,22.60
2022-11-28T14:38:04.854Z,23.55
2022-11-28T14:40:53.597Z,22.60
2022-11-28T14:43:32.998Z,24.42
2022-11-28T14:46:21.124Z,23.33
2022-11-28T14:49:00.447Z,23.48
2022-11-28T14:51:46.098Z,22.45
2022-11-28T14:54:23.938Z,22.35
2022-11-28T14:56:59.594Z,21.23
2022-11-28T14:59:37.256Z,21.00
2022-11-28T15:02:12.929Z,22.00
2022-11-28T15:05:23.344Z,23.13
2022-11-28T15:08:14.880Z,23.50
2022-11-28T15:11:02.684Z,24.40
2022-11-28T15:13:36.101Z,24.17
2022-11-28T15:16:10.846Z,25.13
2022-11-28T15:18:45.350Z,23.25
2022-11-28T15:21:16.017Z,23.27
2022-11-28T15:23:43.887Z,19.75
2022-11-28T15:26:27.246Z,24.55
2022-11-28T15:29:23.610Z,20.60
2022-11-28T15:31:53.573Z,24.75
2022-11-28T15:34:30.891Z,23.92
2022-11-28T15:37:07.244Z,24.65
2022-11-28T15:39:54.493Z,26.20
2022-11-28T15:42:32.876Z,26.35
2022-11-28T15:45:07.397Z,27.08
2022-11-28T15:47:35.173Z,26.98
2022-11-28T15:50:17.361Z,26.33
2022-11-28T15:53:14.348Z,21.63
2022-11-28T15:55:41.222Z,24.30
2022-11-28T15:58:21.335Z,24.90
2022-11-28T16:00:54.848Z,23.88
2022-11-28T16:03:29.480Z,24.05
2022-11-28T16:05:58.847Z,23.17
2022-11-28T16:08:27.905Z,18.80
2022-11-28T16:10:56.711Z,23.55
2022-11-28T16:13:25.183Z,24.25
2022-11-28T16:15:56.418Z,22.83
2022-11-28T16:18:30.053Z,24.02
2022-11-28T16:21:02.148Z,21.17
2022-11-28T16:23:36.720Z,23.85
2022-11-28T16:26:07.173Z,21.38
2022-11-28T16:28:39.631Z,23.63
2022-11-28T16:33:47.978Z,22.63
2022-11-28T16:36:36.521Z,21.50
2022-11-28T16:39:13.508Z,23.05
2022-11-28T16:41:46.632Z,22.33
2022-11-28T16:44:16.715Z,22.70
2022-11-28T16:46:49.582Z,23.33
2022-11-28T16:49:59.112Z,22.90
2022-11-28T16:52:25.896Z,24.80
2022-11-28T16:54:58.984Z,22.73
2022-11-28T16:57:45.649Z,25.65
2022-11-28T17:02:59.617Z,25.25
2022-11-28T17:05:32.151Z,24.88
2022-11-28T17:10:34.448Z,25.90
2022-11-28T17:15:28.590Z,25.58
2022-11-28T17:17:57.533Z,25.50
2022-11-28T17:20:24.430Z,25.63
2022-11-28T17:22:53.844Z,26.05
2022-11-28T17:25:23.987Z,26.10
2022-11-28T17:27:52.844Z,24.77
2022-11-28T17:30:21.452Z,24.25
2022-11-28T17:32:52.117Z,26.17
2022-11-28T17:35:35.793Z,26.15
2022-11-28T17:38:02.708Z,25.23
2022-11-28T17:40:41.343Z,25.08
2022-11-28T17:43:22.751Z,26.65
2022-11-28T17:45:51.097Z,26.38
2022-11-28T17:48:21.865Z,27.65
2022-11-28T17:50:50.866Z,27.63
2022-11-28T17:53:20.317Z,25.23
2022-11-28T17:55:48.918Z,23.73
2022-11-28T17:58:22.267Z,23.88
2022-11-28T18:00:50.679Z,24.13
2022-11-28T18:03:22.571Z,23.95
2022-11-28T18:05:51.833Z,24.20
2022-11-28T18:08:22.356Z,25.25
2022-11-28T18:10:49.867Z,23.65
2022-11-28T18:13:17.754Z,23.65
2022-11-28T18:15:47.190Z,23.88
2022-11-28T18:18:14.309Z,25.83
2022-11-28T18:20:41.828Z,24.17
2022-11-28T18:23:11.116Z,24.85
2022-11-28T18:25:58.391Z,23.77
2022-11-28T18:28:27.974Z,22.55
2022-11-28T18:30:57.257Z,23.92
2022-11-28T18:33:31.653Z,23.98
2022-11-28T18:36:17.430Z,23.80
2022-11-28T18:38:49.668Z,22.92
2022-11-28T18:41:23.297Z,22.70
2022-11-28T18:43:57.423Z,23.25
2022-11-28T18:46:34.177Z,22.65
2022-11-28T18:49:04.350Z,22.25
2022-11-28T18:51:35.912Z,23.35
2022-11-28T18:54:05.531Z,24.10
2022-11-28T18:56:34.949Z,24.38
2022-11-28T18:59:05.205Z,24.95
2022-11-28T19:01:43.465Z,24.58
2022-11-28T19:04:25.047Z,23.35
2022-11-28T19:06:58.189Z,24.23
2022-11-28T19:09:25.082Z,24.17
2022-11-28T19:11:52.055Z,26.48
2022-11-28T19:14:22.591Z,24.33
2022-11-28T19:16:54.402Z,28.48
2022-11-28T19:19:22.935Z,28.77
2022-11-28T19:21:50.371Z,27.65
2022-11-28T19:24:35.074Z,25.77
2022-11-28T19:27:01.977Z,24.50
2022-11-28T19:29:33.756Z,23.40
2022-11-28T19:32:10.284Z,23.05
2022-11-28T19:34:40.262Z,20.83
2022-11-28T19:37:07.155Z,21.67
2022-11-28T19:39:34.142Z,20.58
2022-11-28T19:42:01.632Z,22.08
2022-11-28T19:44:36.422Z,21.80
2022-11-28T19:47:08.813Z,19.75
2022-11-28T19:49:51.616Z,19.17
2022-11-28T19:54:47.897Z,19.13
2022-11-28T19:57:17.142Z,16.48
2022-11-28T19:59:47.221Z,17.75
2022-11-28T20:02:21.083Z,17.17
2022-11-28T20:04:54.250Z,17.80
2022-11-28T20:07:22.045Z,16.63
2022-11-28T20:09:48.972Z,16.73
2022-11-28T20:12:20.827Z,18.00
2022-11-28T20:14:47.725Z,17.23
2022-11-28T20:17:19.684Z,17.80
2022-11-28T20:19:51.507Z,18.42
2022-11-28T20:22:22.589Z,17.40
2022-11-28T20:24:57.016Z,18.30
2022-11-28T20:27:24.750Z,19.23
2022-11-28T20:29:53.540Z,19.30
2022-11-28T20:32:26.302Z,19.23
2022-11-28T20:35:03.370Z,20.25
2022-11-28T20:37:34.869Z,20.20
2022-11-28T20:40:02.573Z,19.17
2022-11-28T20:42:29.835Z,19.98
2022-11-28T20:44:56.899Z,19.00
2022-11-28T20:47:23.744Z,18.58
2022-11-28T20:49:59.917Z,18.17
2022-11-28T20:52:27.088Z,18.20
2022-11-28T20:55:00.623Z,18.08
2022-11-28T20:57:28.684Z,19.25
2022-11-28T21:00:01.293Z,17.65
2022-11-28T21:05:05.789Z,17.42
2022-11-28T21:07:33.809Z,18.17
2022-11-28T21:10:04.130Z,17.38
2022-11-28T21:12:37.652Z,17.95
2022-11-28T21:15:05.724Z,18.38
2022-11-28T21:17:36.134Z,17.13
2022-11-28T21:20:10.592Z,16.92
2022-11-28T21:22:44.703Z,16.80
2022-11-28T21:25:23.773Z,16.48
2022-11-28T21:27:52.442Z,17.23
2022-11-28T21:30:19.576Z,19.15
2022-11-28T21:32:50.839Z,18.75
2022-11-28T21:35:23.607Z,18.35
2022-11-28T21:37:50.793Z,17.88
2022-11-28T21:40:17.980Z,18.73
2022-11-28T21:43:00.715Z,18.38
2022-11-28T21:45:39.649Z,18.33
2022-11-28T21:48:09.472Z,19.33
2022-11-28T21:50:39.597Z,19.40
2022-11-28T21:53:06.723Z,18.73
2022-11-28T21:55:36.380Z,19.48
2022-11-28T21:58:07.096Z,20.27
2022-11-28T22:00:52.689Z,19.40
2022-11-28T22:03:28.732Z,19.00
2022-11-28T22:06:14.172Z,18.67
2022-11-28T22:08:41.539Z,17.45
2022-11-28T22:11:15.832Z,19.02
2022-11-28T22:13:46.408Z,20.05
2022-11-28T22:16:23.472Z,20.70
2022-11-28T22:18:59.813Z,19.83
2022-11-28T22:21:53.009Z,20.60
2022-11-28T22:24:22.678Z,20.92
2022-11-28T22:26:52.067Z,20.63
2022-11-28T22:29:21.347Z,21.83
2022-11-28T22:31:57.839Z,22.40
2022-11-28T22:34:27.460Z,22.98
2022-11-28T22:36:58.382Z,24.33
2022-11-28T22:39:25.738Z,25.08
2022-11-28T22:42:02.276Z,25.98
2022-11-28T22:44:31.216Z,26.08
2022-11-28T22:46:58.681Z,26.88
2022-11-28T22:49:27.947Z,29.80
2022-11-28T22:51:55.027Z,27.63
2022-11-28T22:54:26.541Z,26.98
2022-11-28T22:56:53.802Z,27.10
2022-11-28T22:59:20.752Z,28.40
2022-11-28T23:01:47.607Z,28.25
2022-11-28T23:04:16.953Z,28.30
2022-11-28T23:06:46.550Z,29.20
2022-11-28T23:09:16.749Z,28.55
2022-11-28T23:11:44.918Z,28.00
2022-11-28T23:14:21.638Z,27.15
2022-11-28T23:16:49.268Z,28.73
2022-11-28T23:19:19.901Z,29.30
2022-11-28T23:21:52.958Z,28.05
2022-11-28T23:24:26.661Z,28.13
2022-11-28T23:26:53.880Z,27.83
2022-11-28T23:29:24.608Z,26.00
2022-11-28T23:31:54.222Z,27.80
2022-11-28T23:34:21.267Z,28.15
2022-11-28T23:36:48.209Z,27.40
2022-11-28T23:39:26.502Z,26.70
2022-11-28T23:41:56.187Z,26.73
2022-11-28T23:44:23.672Z,25.02
2022-11-28T23:46:50.793Z,24.70
2022-11-28T23:49:21.122Z,26.15
2022-11-28T23:51:48.608Z,25.15
2022-11-28T23:54:16.018Z,24.95
2022-11-28T23:56:50.597Z,23.77
2022-11-28T23:59:22.974Z,23.55
